createdAt,value
2017-09-07T00:00:20.099Z,65.40
2017-09-07T00:02:46.753Z,65.50
2017-09-07T00:05:13.447Z,65.40
2017-09-07T00:07:40.095Z,65.50
2017-09-07T00:10:06.755Z,65.50
2017-09-07T00:12:33.403Z,65.50
2017-09-07T00:15:00.047Z,65.60
2017-09-07T00:17:26.739Z,65.50
2017-09-07T00:19:53.378Z,65.50
2017-09-07T00:22:20.044Z,65.50
2017-09-07T00:24:46.693Z,65.50
2017-09-07T00:27:13.363Z,65.50
2017-09-07T00:29:40.006Z,65.60
2017-09-07T00:32:06.692Z,65.60
2017-09-07T00:34:33.522Z,65.60
2017-09-07T00:37:00.171Z,65.60
2017-09-07T00:39:26.823Z,65.70
2017-09-07T00:41:53.487Z,65.70
2017-09-07T00:44:20.155Z,65.70
2017-09-07T00:46:46.807Z,65.70
2017-09-07T00:49:13.479Z,65.60
2017-09-07T00:51:40.151Z,65.60
2017-09-07T00:54:06.822Z,65.70
2017-09-07T00:56:33.870Z,65.70
2017-09-07T00:59:00.563Z,65.70
2017-09-07T01:01:27.215Z,65.80
2017-09-07T01:03:53.858Z,65.70
2017-09-07T01:06:20.514Z,65.70
2017-09-07T01:08:47.167Z,65.70
2017-09-07T01:14:03.011Z,65.80
2017-09-07T01:16:29.680Z,65.80
2017-09-07T01:18:56.327Z,65.80
2017-09-07T01:21:23.002Z,65.80
2017-09-07T01:23:49.738Z,65.90
2017-09-07T01:26:16.412Z,65.90
2017-09-07T01:28:43.063Z,65.90
2017-09-07T01:31:10.078Z,65.80
2017-09-07T01:33:36.724Z,65.80
2017-09-07T01:36:03.391Z,65.80
2017-09-07T01:38:30.051Z,65.80
2017-09-07T01:40:56.699Z,65.90
2017-09-07T01:43:23.366Z,65.90
2017-09-07T01:45:50.006Z,65.90
2017-09-07T01:48:16.683Z,65.90
2017-09-07T01:50:43.323Z,65.90
2017-09-07T01:53:10.000Z,65.90
2017-09-07T01:55:37.667Z,65.90
2017-09-07T01:58:04.336Z,65.90
2017-09-07T02:00:30.983Z,65.90
2017-09-07T02:02:57.686Z,66.00
2017-09-07T02:05:24.336Z,65.90
2017-09-07T02:07:50.990Z,65.90
2017-09-07T02:10:17.642Z,66.00
2017-09-07T02:12:44.297Z,66.00
2017-09-07T02:15:10.971Z,65.90
2017-09-07T02:17:37.619Z,65.90
2017-09-07T02:20:04.295Z,66.00
2017-09-07T02:22:30.944Z,66.00
2017-09-07T02:24:57.619Z,66.00
2017-09-07T02:27:24.263Z,66.00
2017-09-07T02:29:50.930Z,66.00
2017-09-07T02:32:17.570Z,66.00
2017-09-07T02:34:44.335Z,66.00
2017-09-07T02:37:10.986Z,66.00
2017-09-07T02:39:37.630Z,66.00
2017-09-07T02:42:04.315Z,66.00
2017-09-07T02:44:30.967Z,66.00
2017-09-07T02:46:57.616Z,66.00
2017-09-07T02:49:24.270Z,66.00
2017-09-07T02:51:50.950Z,66.00
2017-09-07T02:54:17.599Z,66.00
2017-09-07T02:56:44.772Z,66.00
2017-09-07T02:59:11.426Z,66.00
2017-09-07T03:01:38.465Z,66.00
2017-09-07T03:04:05.115Z,66.10
2017-09-07T03:06:31.763Z,66.10
2017-09-07T03:08:58.458Z,66.10
2017-09-07T03:14:08.813Z,66.00
2017-09-07T03:16:35.464Z,66.10
2017-09-07T03:19:02.155Z,66.10
2017-09-07T03:21:28.798Z,66.10
2017-09-07T03:23:55.451Z,66.00
2017-09-07T03:26:22.107Z,66.10
2017-09-07T03:28:48.759Z,66.10
2017-09-07T03:31:15.430Z,66.10
2017-09-07T03:33:42.075Z,66.10
2017-09-07T03:36:08.756Z,66.10
2017-09-07T03:38:35.414Z,66.10
2017-09-07T03:43:51.015Z,66.10
2017-09-07T03:46:17.708Z,66.20
2017-09-07T03:48:45.018Z,66.20
2017-09-07T03:51:11.679Z,66.10
2017-09-07T03:53:38.328Z,66.20
2017-09-07T03:56:04.974Z,66.20
2017-09-07T03:58:31.702Z,66.20
2017-09-07T04:00:58.343Z,66.20
2017-09-07T04:03:25.014Z,66.20
2017-09-07T04:05:51.664Z,66.20
2017-09-07T04:08:18.363Z,66.20
2017-09-07T04:13:33.426Z,66.30
2017-09-07T04:16:00.075Z,66.20
2017-09-07T04:18:26.736Z,66.20
2017-09-07T04:20:53.382Z,66.20
2017-09-07T04:23:20.031Z,66.20
2017-09-07T04:25:46.720Z,66.30
2017-09-07T04:28:13.372Z,66.30
2017-09-07T04:30:40.040Z,66.30
2017-09-07T04:33:06.683Z,66.30
2017-09-07T04:35:33.358Z,66.40
2017-09-07T04:38:00.002Z,66.30
2017-09-07T04:40:26.678Z,66.30
2017-09-07T04:42:53.367Z,66.30
2017-09-07T04:45:20.015Z,66.30
2017-09-07T04:47:46.688Z,66.40
2017-09-07T04:50:13.331Z,66.40
2017-09-07T04:52:39.980Z,66.40
2017-09-07T04:55:06.635Z,66.40
2017-09-07T04:57:33.312Z,66.40
2017-09-07T04:59:59.967Z,66.40
2017-09-07T05:02:26.648Z,66.40
2017-09-07T05:04:55.355Z,66.40
2017-09-07T05:07:22.062Z,66.40
2017-09-07T05:09:48.711Z,66.50
2017-09-07T05:12:15.370Z,66.40
2017-09-07T05:14:42.027Z,66.50
2017-09-07T05:17:08.674Z,66.40
2017-09-07T05:19:35.323Z,66.50
2017-09-07T05:22:01.971Z,66.50
2017-09-07T05:24:28.619Z,66.50
2017-09-07T05:26:55.277Z,66.50
2017-09-07T05:29:21.951Z,66.50
2017-09-07T05:31:48.644Z,66.50
2017-09-07T05:34:15.318Z,66.50
2017-09-07T05:36:41.971Z,66.50
2017-09-07T05:39:08.642Z,66.50
2017-09-07T05:44:14.403Z,66.60
2017-09-07T05:46:41.060Z,66.60
2017-09-07T05:49:07.708Z,66.60
2017-09-07T05:51:34.361Z,66.60
2017-09-07T05:54:01.018Z,66.60
2017-09-07T05:56:27.667Z,66.60
2017-09-07T05:58:54.479Z,66.60
2017-09-07T06:01:21.130Z,66.60
2017-09-07T06:03:47.774Z,66.60
2017-09-07T06:06:14.452Z,66.70
2017-09-07T06:08:41.098Z,66.70
2017-09-07T06:13:56.361Z,66.70
2017-09-07T06:16:23.007Z,66.70
2017-09-07T06:18:49.651Z,66.70
2017-09-07T06:21:16.303Z,66.70
2017-09-07T06:23:42.951Z,66.70
2017-09-07T06:26:09.593Z,66.70
2017-09-07T06:28:36.263Z,66.70
2017-09-07T06:31:02.927Z,66.70
2017-09-07T06:33:29.616Z,66.70
2017-09-07T06:35:56.259Z,66.70
2017-09-07T06:38:23.511Z,66.70
2017-09-07T06:43:39.426Z,66.70
2017-09-07T06:46:06.075Z,66.80
2017-09-07T06:48:32.728Z,66.80
2017-09-07T06:50:59.371Z,66.80
2017-09-07T06:53:26.031Z,66.80
2017-09-07T06:55:52.714Z,66.80
2017-09-07T06:58:19.370Z,66.80
2017-09-07T07:00:46.060Z,66.80
2017-09-07T07:03:12.703Z,66.80
2017-09-07T07:05:39.392Z,66.80
2017-09-07T07:08:06.626Z,66.80
2017-09-07T07:10:33.282Z,66.80
2017-09-07T07:12:59.939Z,66.90
2017-09-07T07:15:26.591Z,66.90
2017-09-07T07:17:53.971Z,66.90
2017-09-07T07:20:20.623Z,66.90
2017-09-07T07:22:47.270Z,66.90
2017-09-07T07:25:13.924Z,66.90
2017-09-07T07:27:41.171Z,66.90
2017-09-07T07:30:07.819Z,67.00
2017-09-07T07:32:34.491Z,66.90
2017-09-07T07:35:01.143Z,66.90
2017-09-07T07:37:27.842Z,66.90
2017-09-07T07:39:54.495Z,67.00
2017-09-07T07:42:21.151Z,67.00
2017-09-07T07:44:47.831Z,67.00
2017-09-07T07:47:14.479Z,67.00
2017-09-07T07:49:41.123Z,67.00
2017-09-07T07:52:07.771Z,67.00
2017-09-07T07:54:34.464Z,67.00
2017-09-07T07:57:01.127Z,67.00
2017-09-07T07:59:27.805Z,67.00
2017-09-07T08:01:54.456Z,67.00
2017-09-07T08:04:21.106Z,67.00
2017-09-07T08:06:47.796Z,67.00
2017-09-07T08:09:14.447Z,67.00
2017-09-07T08:11:41.114Z,67.00
2017-09-07T08:14:07.755Z,67.00
2017-09-07T08:16:34.514Z,67.00
2017-09-07T08:19:01.162Z,67.00
2017-09-07T08:21:27.835Z,67.00
2017-09-07T08:23:54.477Z,67.10
2017-09-07T08:26:21.175Z,67.10
2017-09-07T08:28:47.826Z,67.00
2017-09-07T08:31:14.467Z,67.10
2017-09-07T08:33:41.110Z,67.10
2017-09-07T08:36:07.775Z,67.10
2017-09-07T08:38:35.464Z,67.10
2017-09-07T08:41:02.115Z,67.10
2017-09-07T08:43:28.783Z,67.00
2017-09-07T08:45:55.430Z,67.10
2017-09-07T08:48:22.095Z,67.10
2017-09-07T08:50:48.745Z,67.10
2017-09-07T08:53:15.544Z,67.10
2017-09-07T08:55:42.190Z,67.10
2017-09-07T08:58:08.838Z,67.10
2017-09-07T09:00:35.483Z,67.10
2017-09-07T09:03:02.148Z,67.20
2017-09-07T09:05:28.822Z,67.20
2017-09-07T09:07:55.466Z,67.20
2017-09-07T09:10:22.139Z,67.20
2017-09-07T09:12:48.786Z,67.20
2017-09-07T09:15:15.455Z,67.20
2017-09-07T09:17:42.103Z,67.20
2017-09-07T09:20:08.858Z,67.20
2017-09-07T09:22:35.506Z,67.20
2017-09-07T09:25:02.147Z,67.20
2017-09-07T09:27:28.790Z,67.20
2017-09-07T09:29:55.431Z,67.20
2017-09-07T09:32:22.075Z,67.30
2017-09-07T09:34:48.736Z,67.30
2017-09-07T09:37:15.414Z,67.20
2017-09-07T09:39:42.063Z,67.30
2017-09-07T09:42:08.729Z,67.30
2017-09-07T09:44:35.398Z,67.30
2017-09-07T09:47:02.079Z,67.30
2017-09-07T09:49:28.726Z,67.30
2017-09-07T09:51:55.367Z,67.30
2017-09-07T09:54:22.023Z,67.30
2017-09-07T09:56:48.666Z,67.30
2017-09-07T09:59:15.735Z,67.30
2017-09-07T10:01:42.387Z,67.30
2017-09-07T10:04:09.070Z,67.30
2017-09-07T10:06:35.835Z,67.30
2017-09-07T10:09:02.503Z,67.30
2017-09-07T10:14:17.669Z,67.30
2017-09-07T10:16:44.319Z,67.30
2017-09-07T10:19:10.999Z,67.30
2017-09-07T10:21:38.279Z,67.30
2017-09-07T10:24:04.931Z,67.30
2017-09-07T10:26:31.587Z,67.30
2017-09-07T10:28:58.235Z,67.40
2017-09-07T10:31:25.850Z,67.40
2017-09-07T10:33:52.503Z,67.40
2017-09-07T10:36:19.175Z,67.40
2017-09-07T10:38:45.822Z,67.30
2017-09-07T10:44:01.801Z,67.40
2017-09-07T10:46:28.473Z,67.40
2017-09-07T10:48:55.954Z,67.40
2017-09-07T10:51:22.635Z,67.40
2017-09-07T10:53:49.316Z,67.40
2017-09-07T10:56:15.951Z,67.40
2017-09-07T10:58:42.604Z,67.40
2017-09-07T11:01:09.291Z,67.40
2017-09-07T11:03:35.966Z,67.40
2017-09-07T11:06:02.611Z,67.40
2017-09-07T11:08:29.283Z,67.40
2017-09-07T11:10:55.935Z,67.50
2017-09-07T11:13:22.630Z,67.50
2017-09-07T11:15:49.289Z,67.40
2017-09-07T11:18:15.939Z,67.40
2017-09-07T11:20:42.581Z,67.40
2017-09-07T11:23:09.223Z,67.40
2017-09-07T11:25:35.905Z,67.40
2017-09-07T11:28:02.542Z,67.40
2017-09-07T11:30:29.187Z,67.40
2017-09-07T11:32:55.842Z,67.50
2017-09-07T11:35:22.565Z,67.40
2017-09-07T11:37:49.211Z,67.30
2017-09-07T11:40:15.883Z,67.40
2017-09-07T11:42:42.534Z,67.40
2017-09-07T11:45:09.187Z,67.40
2017-09-07T11:47:35.832Z,67.40
2017-09-07T11:50:02.495Z,67.40
2017-09-07T11:52:29.146Z,67.40
2017-09-07T11:54:55.791Z,67.40
2017-09-07T11:57:22.447Z,67.40
2017-09-07T11:59:49.103Z,67.40
2017-09-07T12:02:15.746Z,67.30
2017-09-07T12:04:42.963Z,67.40
2017-09-07T12:07:09.654Z,67.30
2017-09-07T12:09:36.299Z,67.40
2017-09-07T12:12:02.995Z,67.30
2017-09-07T12:14:29.651Z,67.30
2017-09-07T12:16:56.303Z,67.30
2017-09-07T12:19:23.063Z,67.30
2017-09-07T12:21:49.715Z,67.30
2017-09-07T12:24:16.390Z,67.30
2017-09-07T12:26:43.047Z,67.30
2017-09-07T12:29:09.743Z,67.40
2017-09-07T12:31:36.394Z,67.30
2017-09-07T12:34:03.039Z,67.40
2017-09-07T12:36:29.688Z,67.40
2017-09-07T12:38:56.330Z,67.40
2017-09-07T12:44:11.545Z,67.40
2017-09-07T12:46:38.214Z,67.30
2017-09-07T12:49:04.866Z,67.40
2017-09-07T12:51:31.531Z,67.30
2017-09-07T12:53:58.194Z,67.30
2017-09-07T12:56:24.863Z,67.40
2017-09-07T12:58:51.524Z,67.40
2017-09-07T13:01:18.195Z,67.30
2017-09-07T13:03:44.839Z,67.30
2017-09-07T13:06:11.531Z,67.30
2017-09-07T13:08:38.179Z,67.30
2017-09-07T13:11:04.823Z,67.30
2017-09-07T13:13:31.462Z,67.40
2017-09-07T13:15:58.114Z,67.40
2017-09-07T13:18:24.794Z,67.30
2017-09-07T13:20:51.449Z,67.30
2017-09-07T13:23:18.094Z,67.30
2017-09-07T13:25:44.734Z,67.20
2017-09-07T13:28:11.399Z,67.30
2017-09-07T13:30:38.039Z,67.30
2017-09-07T13:33:04.719Z,67.00
2017-09-07T13:35:31.363Z,67.10
2017-09-07T13:37:58.055Z,67.10
2017-09-07T13:40:24.703Z,67.00
2017-09-07T13:42:51.355Z,66.80
2017-09-07T13:45:18.007Z,66.80
2017-09-07T13:47:44.658Z,66.90
2017-09-07T13:50:11.307Z,66.90
2017-09-07T13:52:37.974Z,67.00
2017-09-07T13:55:05.676Z,67.10
2017-09-07T13:57:32.348Z,67.10
2017-09-07T13:59:58.995Z,67.10
2017-09-07T14:02:25.640Z,67.20
2017-09-07T14:04:52.314Z,67.20
2017-09-07T14:07:18.963Z,67.10
2017-09-07T14:09:45.655Z,67.10
2017-09-07T14:12:12.326Z,67.10
2017-09-07T14:14:38.969Z,67.00
2017-09-07T14:17:05.631Z,67.10
2017-09-07T14:19:32.279Z,67.10
2017-09-07T14:21:58.953Z,67.00
2017-09-07T14:24:25.621Z,67.10
2017-09-07T14:26:52.291Z,67.10
2017-09-07T14:29:18.934Z,67.10
2017-09-07T14:31:45.575Z,67.20
2017-09-07T14:34:12.231Z,67.20
2017-09-07T14:36:38.909Z,67.10
2017-09-07T14:39:05.560Z,67.20
2017-09-07T14:44:21.515Z,67.10
2017-09-07T14:46:48.166Z,67.20
2017-09-07T14:49:15.859Z,67.30
2017-09-07T14:51:42.528Z,67.20
2017-09-07T14:54:09.191Z,67.30
2017-09-07T14:56:35.839Z,67.30
2017-09-07T14:59:02.507Z,67.30
2017-09-07T15:01:29.802Z,67.30
2017-09-07T15:03:56.502Z,67.30
2017-09-07T15:06:23.147Z,67.30
2017-09-07T15:08:49.817Z,67.30
2017-09-07T15:14:05.564Z,67.30
2017-09-07T15:16:32.823Z,67.30
2017-09-07T15:18:59.484Z,67.30
2017-09-07T15:21:26.127Z,67.40
2017-09-07T15:23:52.776Z,67.40
2017-09-07T15:26:20.128Z,67.30
2017-09-07T15:28:46.791Z,67.30
2017-09-07T15:31:14.108Z,67.30
2017-09-07T15:33:40.763Z,67.30
2017-09-07T15:36:07.411Z,67.30
2017-09-07T15:38:34.899Z,67.30
2017-09-07T15:43:50.746Z,67.30
2017-09-07T15:46:17.420Z,67.30
2017-09-07T15:48:44.091Z,67.40
2017-09-07T15:51:10.738Z,67.30
2017-09-07T15:53:37.386Z,67.30
2017-09-07T15:56:04.030Z,67.40
2017-09-07T15:58:30.679Z,67.40
2017-09-07T16:00:57.350Z,67.40
2017-09-07T16:03:24.004Z,67.30
2017-09-07T16:05:50.674Z,67.30
2017-09-07T16:08:17.327Z,67.40
2017-09-07T16:10:44.006Z,67.30
2017-09-07T16:13:10.718Z,67.40
2017-09-07T16:15:37.395Z,67.40
2017-09-07T16:18:07.270Z,67.40
2017-09-07T16:20:33.927Z,67.40
2017-09-07T16:23:00.608Z,67.40
2017-09-07T16:25:27.261Z,67.40
2017-09-07T16:27:53.922Z,67.40
2017-09-07T16:30:20.570Z,67.40
2017-09-07T16:32:47.227Z,67.40
2017-09-07T16:35:13.886Z,67.40
2017-09-07T16:37:41.186Z,67.40
2017-09-07T16:40:07.839Z,67.40
2017-09-07T16:42:34.531Z,67.40
2017-09-07T16:45:01.179Z,67.40
2017-09-07T16:47:27.829Z,67.40
2017-09-07T16:49:54.475Z,67.40
2017-09-07T16:52:54.876Z,67.40
2017-09-07T16:55:21.527Z,67.40
2017-09-07T16:57:48.189Z,67.30
2017-09-07T17:00:14.907Z,67.40
2017-09-07T17:02:41.554Z,67.40
2017-09-07T17:05:08.225Z,67.40
2017-09-07T17:07:34.875Z,67.40
2017-09-07T17:10:01.528Z,67.40
2017-09-07T17:12:28.178Z,67.30
2017-09-07T17:14:55.651Z,67.40
2017-09-07T17:17:22.299Z,67.20
2017-09-07T17:19:48.984Z,67.30
2017-09-07T17:22:15.654Z,67.30
2017-09-07T17:24:42.374Z,67.30
2017-09-07T17:27:09.022Z,67.30
2017-09-07T17:29:35.670Z,67.30
2017-09-07T17:32:02.329Z,67.30
2017-09-07T17:34:28.981Z,67.30
2017-09-07T17:36:55.630Z,67.30
2017-09-07T17:39:22.280Z,67.30
2017-09-07T17:44:37.627Z,67.20
2017-09-07T17:47:04.320Z,67.30
2017-09-07T17:49:30.972Z,67.30
2017-09-07T17:51:57.624Z,67.30
2017-09-07T17:54:24.296Z,67.30
2017-09-07T17:56:50.959Z,67.30
2017-09-07T17:59:17.632Z,67.30
2017-09-07T18:01:44.280Z,67.30
2017-09-07T18:04:10.991Z,67.30
2017-09-07T18:06:37.651Z,67.30
2017-09-07T18:09:04.330Z,67.30
2017-09-07T18:14:20.226Z,67.20
2017-09-07T18:16:46.878Z,67.20
2017-09-07T18:19:13.527Z,67.30
2017-09-07T18:21:40.204Z,67.30
2017-09-07T18:24:06.851Z,67.30
2017-09-07T18:26:33.523Z,67.30
2017-09-07T18:29:00.187Z,67.30
2017-09-07T18:31:26.863Z,67.30
2017-09-07T18:33:53.511Z,67.30
2017-09-07T18:36:20.606Z,67.30
2017-09-07T18:38:47.251Z,67.20
2017-09-07T18:44:02.523Z,67.20
2017-09-07T18:46:29.176Z,67.20
2017-09-07T18:48:55.863Z,67.20
2017-09-07T18:51:22.515Z,67.20
2017-09-07T18:53:49.206Z,67.20
2017-09-07T18:56:15.851Z,67.20
2017-09-07T18:58:42.535Z,67.20
2017-09-07T19:01:09.184Z,67.20
2017-09-07T19:03:35.836Z,67.20
2017-09-07T19:06:02.513Z,67.20
2017-09-07T19:08:29.215Z,67.20
2017-09-07T19:10:55.890Z,67.20
2017-09-07T19:13:22.544Z,67.20
2017-09-07T19:15:49.196Z,67.20
2017-09-07T19:18:15.839Z,67.20
2017-09-07T19:20:42.509Z,67.20
2017-09-07T19:23:09.132Z,67.10
2017-09-07T19:25:36.161Z,67.20
2017-09-07T19:28:02.803Z,67.20
2017-09-07T19:30:29.447Z,67.10
2017-09-07T19:32:56.096Z,67.10
2017-09-07T19:35:22.732Z,67.10
2017-09-07T19:37:49.393Z,67.10
2017-09-07T19:40:16.024Z,67.10
2017-09-07T19:42:42.647Z,67.10
2017-09-07T19:45:09.287Z,67.10
2017-09-07T19:47:36.079Z,67.10
2017-09-07T19:50:02.744Z,67.10
2017-09-07T19:52:29.375Z,67.10
2017-09-07T19:54:56.000Z,67.00
2017-09-07T19:57:22.648Z,67.00
2017-09-07T19:59:49.271Z,67.00
2017-09-07T20:02:15.916Z,67.00
2017-09-07T20:04:42.540Z,67.00
2017-09-07T20:07:09.207Z,67.00
2017-09-07T20:09:35.840Z,67.00
2017-09-07T20:14:46.364Z,66.90
2017-09-07T20:17:13.035Z,67.00
2017-09-07T20:19:39.660Z,67.00
2017-09-07T20:22:06.285Z,67.00
2017-09-07T20:24:32.957Z,67.00
2017-09-07T20:26:59.587Z,67.00
2017-09-07T20:29:26.740Z,67.00
2017-09-07T20:31:53.381Z,66.90
2017-09-07T20:34:20.039Z,67.00
2017-09-07T20:36:46.663Z,67.00
2017-09-07T20:39:13.301Z,67.00
2017-09-07T20:41:39.951Z,66.90
2017-09-07T20:44:06.580Z,66.90
2017-09-07T20:46:33.238Z,66.90
2017-09-07T20:48:59.869Z,66.90
2017-09-07T20:51:26.516Z,66.90
2017-09-07T20:53:53.140Z,66.90
2017-09-07T20:56:19.819Z,66.90
2017-09-07T20:58:46.703Z,66.90
2017-09-07T21:01:13.327Z,66.90
2017-09-07T21:03:39.984Z,66.90
2017-09-07T21:06:06.613Z,66.90
2017-09-07T21:08:33.263Z,66.90
2017-09-07T21:10:59.907Z,66.90
2017-09-07T21:13:26.565Z,66.80
2017-09-07T21:15:53.595Z,66.90
2017-09-07T21:18:20.240Z,66.90
2017-09-07T21:20:46.868Z,66.90
2017-09-07T21:23:13.547Z,66.90
2017-09-07T21:25:40.175Z,66.90
2017-09-07T21:28:06.803Z,66.90
2017-09-07T21:30:33.456Z,66.90
2017-09-07T21:33:00.079Z,66.90
2017-09-07T21:35:26.732Z,66.90
2017-09-07T21:37:53.359Z,66.80
2017-09-07T21:40:20.007Z,66.90
2017-09-07T21:42:46.636Z,66.80
2017-09-07T21:45:13.283Z,66.80
2017-09-07T21:47:39.911Z,66.90
2017-09-07T21:50:06.577Z,66.90
2017-09-07T21:52:33.216Z,66.80
2017-09-07T21:54:59.835Z,66.80
2017-09-07T21:57:26.485Z,66.90
2017-09-07T21:59:53.112Z,66.90
2017-09-07T22:02:19.759Z,66.90
2017-09-07T22:04:46.387Z,66.80
2017-09-07T22:07:13.062Z,66.90
2017-09-07T22:09:39.687Z,66.90
2017-09-07T22:14:49.847Z,66.80
2017-09-07T22:17:16.476Z,66.80
2017-09-07T22:19:43.127Z,66.90
2017-09-07T22:22:09.764Z,66.90
2017-09-07T22:24:36.408Z,66.90
2017-09-07T22:27:03.036Z,66.80
2017-09-07T22:29:29.688Z,66.90
2017-09-07T22:31:56.312Z,66.90
2017-09-07T22:34:22.963Z,66.80
2017-09-07T22:36:49.604Z,66.80
2017-09-07T22:39:16.227Z,66.90
2017-09-07T22:41:42.870Z,66.90
2017-09-07T22:44:09.492Z,66.80
2017-09-07T22:46:36.136Z,66.80
2017-09-07T22:49:02.759Z,66.80
2017-09-07T22:51:29.407Z,66.90
2017-09-07T22:53:56.032Z,66.80
2017-09-07T22:56:22.679Z,66.80
2017-09-07T22:58:49.308Z,66.90
2017-09-07T23:01:15.975Z,66.80
2017-09-07T23:03:42.596Z,66.80
2017-09-07T23:06:09.260Z,66.80
2017-09-07T23:08:35.909Z,66.60
2017-09-07T23:11:02.539Z,66.80
2017-09-07T23:13:29.764Z,66.70
2017-09-07T23:15:56.395Z,66.80
2017-09-07T23:18:23.040Z,66.80
2017-09-07T23:20:49.670Z,66.80
2017-09-07T23:23:16.315Z,66.80
2017-09-07T23:25:42.935Z,66.70
2017-09-07T23:28:09.592Z,66.70
2017-09-07T23:30:36.215Z,66.80
2017-09-07T23:33:02.838Z,66.80
2017-09-07T23:35:29.484Z,66.80
2017-09-07T23:37:56.113Z,66.80
2017-09-07T23:40:22.755Z,66.90
2017-09-07T23:42:49.388Z,66.80
2017-09-07T23:45:16.035Z,66.80
2017-09-07T23:47:42.664Z,66.80
2017-09-07T23:50:09.308Z,66.80
2017-09-07T23:52:35.947Z,66.70
2017-09-07T23:55:02.616Z,66.80
2017-09-07T23:57:29.240Z,66.70
2017-09-07T23:59:55.868Z,66.80
